Latest Weather Observations for Horn Island

IDQ60801

Issued at 4:35 pm EST Wednesday 26 November 2014 (issued every 30 minutes, with the page automatically refreshed every 10 minutes)

About weather observations | Map of weather stations | Latest weather observations for QLD | Other Formats
Station Details ID: 027058 Name: HORN ISLAND Lat: -10.58 Lon: 142.29 Height: 4.0 m
Data from the previous 72 hours. | See also: Recent months at Horn Island
Date/Time
EST
Temp
°C
App
Temp
°C
Dew
Point
Rel
Hum
%
Delta-T
°C
Wind Press
QNH
hPa
Press
MSL
hPa
Rain
since 9 am
mm
Dir
 
Spd
km/h
Gust
km/h
Spd
kts
Gust
kts
26/04:30pm 30.1 29.6 22.8 65 5.0 ESE 30 43 16 23 1005.9 - 0.0
26/04:00pm 30.4 29.8 23.3 66 4.9 ESE 32 41 17 22 1005.9 - 0.0
26/03:30pm 30.3 30.4 23.2 65 4.9 ESE 28 41 15 22 1006.0 - 0.0
26/03:00pm 30.7 29.8 23.1 64 5.2 E 33 43 18 23 1006.2 1006.2 0.0
26/02:30pm 30.8 30.2 22.7 62 5.5 E 30 44 16 24 1006.5 - 0.0
26/02:00pm 31.4 30.4 23.0 61 5.8 E 33 43 18 23 1006.8 - 0.0
26/01:30pm 30.7 29.8 22.8 62 5.4 E 32 43 17 23 1007.2 - 0.0
26/01:00pm 31.7 31.0 23.5 62 5.7 ESE 33 43 18 23 1007.5 - 0.0
26/12:30pm 31.0 30.2 23.1 63 5.4 ESE 32 43 17 23 1007.7 - 0.0
26/12:00pm 31.0 30.3 23.6 64 5.1 E 33 44 18 24 1008.0 1008.0 0.0
26/11:30am 31.6 31.3 23.9 63 5.4 ESE 32 43 17 23 1008.3 - 0.0
26/11:00am 31.7 31.2 23.5 62 5.7 E 32 44 17 24 1008.6 - 0.0
26/10:30am 30.5 29.6 22.9 64 5.2 ESE 32 41 17 22 1008.8 - 0.0
26/10:00am 30.5 31.4 23.9 68 4.6 ESE 26 37 14 20 1009.1 - 0.0
26/09:30am 30.4 31.1 24.3 70 4.3 E 28 37 15 20 1009.3 - 0.0
26/09:00am 29.5 29.9 23.2 69 4.3 E 26 37 14 20 1009.2 1009.2 0.0
26/08:30am 28.9 29.6 23.6 73 3.6 E 26 35 14 19 1008.9 - 0.0
26/08:00am 29.4 29.9 23.3 69 4.2 E 26 37 14 20 1008.4 - 0.0
26/07:30am 28.5 28.5 23.0 72 3.8 ESE 28 39 15 21 1008.0 - 0.0
26/07:00am 28.2 29.8 23.3 75 3.4 ESE 20 35 11 19 1008.0 - 0.0
26/06:30am 27.7 29.2 23.1 76 3.1 ESE 20 30 11 16 1007.8 - 0.0
26/06:00am 27.5 29.3 23.3 78 2.9 ESE 19 26 10 14 1007.5 1007.5 0.0
26/05:30am 27.5 29.3 23.3 78 2.9 ESE 19 24 10 13 1007.4 - 0.0
26/05:00am 27.4 29.0 23.2 78 2.9 ESE 20 26 11 14 1007.0 - 0.0
26/04:30am 27.4 28.2 23.2 78 2.9 ESE 24 32 13 17 1006.5 - 0.0
26/04:00am 27.4 28.3 23.4 79 2.7 ESE 24 37 13 20 1006.2 - 0.0
26/03:30am 27.5 27.4 22.9 76 3.1 ESE 28 37 15 20 1006.3 - 0.0
26/03:00am 27.6 27.7 23.2 77 3.0 ESE 28 37 15 20 1006.3 1006.3 0.0
26/02:30am 27.6 27.9 23.0 76 3.1 ESE 26 35 14 19 1006.4 - 0.0
26/02:00am 27.7 27.7 23.1 76 3.1 ESE 28 33 15 18 1006.9 - 0.0
26/01:30am 27.6 28.0 23.2 77 3.0 ESE 26 37 14 20 1007.1 - 0.0
26/01:00am 27.7 27.8 23.3 77 3.0 ESE 28 37 15 20 1007.5 - 0.0
26/12:30am 27.6 27.6 23.0 76 3.1 ESE 28 39 15 21 1008.0 - 0.0
26/12:00am 27.7 28.6 23.3 77 3.0 E 24 33 13 18 1008.3 1008.3 0.0
 
Date/Time
EST
Temp
°C
App
Temp
°C
Dew
Point
Rel
Hum
%
Delta-T
°C
Wind Press
QNH
hPa
Press
MSL
hPa
Rain
since 9 am
mm
Dir
 
Spd
km/h
Gust
km/h
Spd
kts
Gust
kts
25/11:30pm 27.7 27.8 22.6 74 3.5 ESE 26 43 14 23 1008.6 - 0.0
25/11:00pm 27.9 28.0 23.3 76 3.1 ESE 28 39 15 21 1008.8 - 0.0
25/10:30pm 27.7 27.8 23.3 77 3.0 ESE 28 39 15 21 1008.7 - 0.0
25/10:00pm 27.7 27.4 23.3 77 3.0 ESE 30 37 16 20 1008.5 - 0.0
25/09:30pm 27.7 27.8 23.3 77 3.0 ESE 28 39 15 21 1008.3 - 0.0
25/09:00pm 27.6 27.8 23.4 78 2.9 ESE 28 39 15 21 1008.1 1008.1 0.0
25/08:30pm 27.6 27.7 23.2 77 3.0 ESE 28 39 15 21 1007.8 - 0.0
25/08:00pm 27.8 28.4 23.4 77 3.0 ESE 26 37 14 20 1007.4 - 0.0
25/07:30pm 27.9 28.4 23.3 76 3.1 ESE 26 35 14 19 1007.3 - 0.0
25/07:00pm 28.1 28.1 23.0 74 3.5 ESE 28 37 15 20 1007.0 - 0.0
25/06:30pm 28.4 29.1 22.9 72 3.7 ESE 24 35 13 19 1006.8 - 0.0
25/06:00pm 29.1 29.7 22.8 69 4.3 ESE 24 32 13 17 1006.9 1006.9 0.0
25/05:30pm 29.6 29.7 22.6 66 4.8 ESE 26 37 14 20 1006.8 - 0.0
25/05:00pm 29.5 29.7 22.7 67 4.6 ESE 26 37 14 20 1006.8 - 0.0
25/04:30pm 29.6 29.8 22.8 67 4.6 ESE 26 39 14 21 1006.6 - 0.0
25/04:00pm 30.7 29.2 22.0 59 5.9 E 33 44 18 24 1006.5 - 0.0
25/03:30pm 31.0 30.1 23.1 63 5.4 ESE 33 43 18 23 1006.6 - 0.0
25/03:00pm 30.9 29.5 21.9 58 6.1 ESE 32 41 17 22 1006.9 1006.9 0.0
25/02:30pm 30.9 30.4 22.8 62 5.5 ESE 30 41 16 22 1007.2 - 0.0
25/02:00pm 31.1 30.0 22.4 60 5.9 E 32 43 17 23 1007.6 - 0.0
25/01:30pm 31.0 30.0 22.6 61 5.7 E 32 43 17 23 1007.8 - 0.0
25/01:00pm 31.2 29.9 22.5 60 5.9 E 33 46 18 25 1008.3 - 0.0
25/12:30pm 30.9 28.9 22.5 61 5.7 ESE 37 50 20 27 1008.7 - 0.0
25/12:00pm 31.7 30.9 23.0 60 6.0 E 32 43 17 23 1008.7 1008.7 0.0
25/11:30am 31.4 31.1 23.2 61 5.6 E 30 41 16 22 1009.0 - 0.0
25/11:00am 31.3 30.2 22.9 61 5.8 ESE 33 43 18 23 1009.3 - 0.0
25/10:30am 30.6 29.6 22.7 62 5.4 E 32 44 17 24 1009.4 - 0.0
25/10:00am 30.5 29.5 22.7 63 5.3 E 32 43 17 23 1009.6 - 0.0
25/09:30am 30.0 29.0 21.9 62 5.5 ESE 30 39 16 21 1009.7 - 0.0
25/09:00am 29.9 30.6 22.9 66 4.8 ESE 24 32 13 17 1009.5 1009.5 0.0
25/08:30am 29.4 29.9 22.6 67 4.6 ESE 24 33 13 18 1009.5 - 0.0
25/08:00am 28.6 29.3 22.3 68 4.3 ESE 22 30 12 16 1009.2 - 0.0
25/07:30am 28.2 29.7 22.7 72 3.7 SE 19 24 10 13 1008.9 - 0.0
25/07:00am 27.8 29.1 22.7 74 3.5 ESE 20 30 11 16 1008.7 - 0.0
25/06:30am 26.8 28.6 22.6 78 2.8 ESE 17 20 9 11 1008.5 - 0.0
25/06:00am 26.5 28.3 22.6 79 2.6 SE 17 24 9 13 1008.2 1008.2 0.0
25/05:30am 26.6 27.9 22.4 78 2.8 ESE 19 26 10 14 1008.0 - 0.0
25/05:00am 26.6 27.9 22.4 78 2.8 ESE 19 26 10 14 1007.7 - 0.0
25/04:30am 26.8 28.1 22.6 78 2.8 ESE 20 30 11 16 1007.8 - 0.0
25/04:00am 26.9 28.0 22.3 76 3.1 ESE 20 30 11 16 1007.9 - 0.0
25/03:30am 26.8 27.6 22.4 77 3.0 ESE 22 33 12 18 1008.1 - 0.0
25/03:00am 26.9 28.5 22.9 79 2.7 SE 19 26 10 14 1008.4 1008.4 0.0
25/02:30am 26.9 28.4 22.7 78 2.8 ESE 19 30 10 16 1008.6 - 0.0
25/02:00am 26.8 28.7 22.8 79 2.7 ESE 17 26 9 14 1008.9 - 0.0
25/01:30am 26.9 28.3 22.5 77 3.0 ESE 19 26 10 14 1009.1 - 0.0
25/01:00am 27.0 28.3 22.6 77 3.0 SE 20 28 11 15 1009.1 - 0.0
25/12:30am 27.1 27.8 22.3 75 3.2 ESE 22 30 12 16 1009.3 - 0.0
25/12:00am 27.2 28.5 22.6 76 3.1 ESE 20 30 11 16 1009.8 1009.8 0.0
 
Date/Time
EST
Temp
°C
App
Temp
°C
Dew
Point
Rel
Hum
%
Delta-T
°C
Wind Press
QNH
hPa
Press
MSL
hPa
Rain
since 9 am
mm
Dir
 
Spd
km/h
Gust
km/h
Spd
kts
Gust
kts
24/11:30pm 27.3 28.1 22.5 75 3.2 ESE 22 33 12 18 1010.1 - 0.0
24/11:00pm 27.4 27.9 22.6 75 3.2 ESE 24 33 13 18 1010.1 - 0.0
24/10:30pm 27.4 27.6 22.1 73 3.6 ESE 24 37 13 20 1009.8 - 0.0
24/10:00pm 27.4 27.0 22.3 73 3.4 ESE 28 39 15 21 1009.4 - 0.0
24/09:30pm 27.5 28.0 22.7 75 3.3 ESE 24 33 13 18 1009.0 - 0.0
24/09:00pm 27.5 28.0 22.7 75 3.3 ESE 24 35 13 19 1008.7 1008.7 0.0
24/08:30pm 27.6 27.7 22.5 74 3.4 ESE 26 32 14 17 1008.8 - 0.0
24/08:00pm 27.6 27.2 22.3 73 3.6 ESE 28 37 15 20 1008.7 - 0.0
24/07:30pm 27.7 27.6 22.2 72 3.7 ESE 26 33 14 18 1008.7 - 0.0
24/07:00pm 27.8 27.9 21.8 70 4.0 ESE 24 35 13 19 1008.3 - 0.0
24/06:30pm 28.2 27.3 21.5 67 4.5 ESE 28 39 15 21 1007.9 - 0.0
24/06:00pm 29.1 28.9 21.3 62 5.2 ESE 24 33 13 18 1007.6 1007.6 0.0
24/05:30pm 29.1 28.1 21.3 62 5.2 ESE 28 37 15 20 1007.6 - 0.0
24/05:00pm 29.5 28.0 20.9 60 5.7 ESE 30 39 16 21 1007.5 - 0.0
24/04:30pm 30.0 28.9 21.7 61 5.6 ESE 30 41 16 22 1007.5 - 0.0
24/04:00pm 30.3 29.2 21.7 60 5.8 E 30 39 16 21 1007.6 - 0.0
24/03:30pm 30.5 28.6 21.0 57 6.3 ESE 32 43 17 23 1007.7 - 0.0
24/03:00pm 30.4 28.6 21.2 58 6.2 E 32 41 17 22 1007.9 1007.9 0.0
24/02:30pm 30.5 28.5 20.7 55 6.5 E 32 41 17 22 1008.1 - 0.0
24/02:00pm 30.2 29.2 21.3 59 6.0 E 28 39 15 21 1008.6 - 0.0
24/01:30pm 30.7 29.3 21.2 57 6.4 E 30 41 16 22 1009.0 - 0.0
24/01:00pm 30.3 28.9 21.1 58 6.1 E 30 39 16 21 1009.3 - 0.0
24/12:30pm 29.9 28.3 21.6 61 5.6 E 32 43 17 23 1009.8 - 0.0
24/12:00pm 30.3 29.4 21.4 59 6.0 ESE 28 37 15 20 1010.1 1010.1 0.0
24/11:30am 30.4 28.8 21.5 59 6.0 ESE 32 41 17 22 1010.6 - 0.0
24/11:00am 30.0 28.9 21.1 59 5.9 E 28 39 15 21 1010.8 - 0.0
24/10:30am 30.4 30.3 21.5 59 6.0 E 24 33 13 18 1011.1 - 0.0
24/10:00am 29.9 29.6 21.8 62 5.5 E 26 35 14 19 1011.3 - 0.0
24/09:30am 29.4 28.9 21.4 62 5.4 ESE 26 37 14 20 1011.5 - 0.0
24/09:00am 28.9 28.9 21.7 65 4.8 E 24 30 13 16 1011.4 1011.4 0.0
24/08:30am 28.2 30.3 22.4 71 3.9 ESE 15 20 8 11 1011.1 - 0.0
24/08:00am 27.4 29.8 22.3 73 3.4 SSE 13 20 7 11 1011.1 - 0.0
24/07:30am 27.2 29.7 22.4 75 3.2 SSE 13 19 7 10 1010.5 - 0.0
24/07:00am 27.2 30.2 22.6 76 3.1 SE 11 17 6 9 1010.1 - 0.0
24/06:30am 26.7 28.7 22.3 77 3.0 SE 15 20 8 11 1009.8 - 0.0
24/06:00am 26.6 29.0 22.2 77 3.0 SE 13 19 7 10 1009.5 1009.5 0.0
24/05:30am 26.5 28.5 22.3 78 2.8 SE 15 19 8 10 1009.3 - 0.0
24/05:00am 26.5 28.4 22.1 77 3.0 ESE 15 20 8 11 1009.1 - 0.0
24/04:30am 26.6 28.7 22.4 78 2.8 ESE 15 19 8 10 1008.9 - 0.0
24/04:00am 26.9 28.2 22.3 76 3.1 ESE 19 28 10 15 1008.6 - 0.0
24/03:30am 26.7 27.9 22.1 76 3.1 ESE 19 26 10 14 1008.8 - 0.0
24/03:00am 26.8 27.5 22.2 76 3.1 E 22 30 12 16 1008.8 1008.8 0.0
24/02:30am 26.9 28.2 22.7 78 2.8 E 20 30 11 16 1009.0 - 0.0
24/02:00am 26.9 27.2 22.3 76 3.1 E 24 35 13 19 1009.4 - 0.0
24/01:30am 26.9 28.1 22.5 77 3.0 ESE 20 32 11 17 1009.8 - 0.0
24/01:00am 26.9 27.2 22.3 76 3.1 E 24 35 13 19 1010.0 - 0.0
24/12:30am 27.1 27.2 22.5 76 3.1 E 26 32 14 17 1010.7 - 0.0
24/12:00am 27.2 27.6 22.4 75 3.2 E 24 32 13 17 1011.1 1011.1 0.0
 
Date/Time
EST
Temp
°C
App
Temp
°C
Dew
Point
Rel
Hum
%
Delta-T
°C
Wind Press
QNH
hPa
Press
MSL
hPa
Rain
since 9 am
mm
Dir
 
Spd
km/h
Gust
km/h
Spd
kts
Gust
kts
23/11:30pm 27.2 26.8 22.4 75 3.2 E 28 37 15 20 1011.4 - 0.0
23/11:00pm 27.2 27.8 22.8 77 3.0 E 24 33 13 18 1011.5 - 0.0
23/10:30pm 27.3 27.4 22.5 75 3.2 E 26 37 14 20 1011.9 - 0.0
23/10:00pm 27.4 27.5 22.6 75 3.2 E 26 35 14 19 1011.7 - 0.0
23/09:30pm 27.5 28.0 22.7 75 3.3 E 24 35 13 19 1011.5 - 0.0
23/09:00pm 27.5 27.7 22.7 75 3.3 E 26 37 14 20 1011.4 1011.4 0.0
23/08:30pm 27.6 27.8 22.8 75 3.3 ESE 26 35 14 19 1010.9 - 0.0
23/08:00pm 27.6 28.6 22.8 75 3.3 ESE 22 33 12 18 1010.3 - 0.0
23/07:30pm 27.6 28.4 22.5 74 3.4 ESE 22 32 12 17 1010.0 - 0.0
23/07:00pm 27.7 28.8 22.4 73 3.6 ESE 20 30 11 16 1009.8 - 0.0
23/06:30pm 27.9 28.5 22.1 70 3.9 ESE 22 32 12 17 1009.6 - 0.0
23/06:00pm 28.2 28.1 22.2 70 4.1 ESE 26 33 14 18 1009.5 1009.5 0.0
23/05:30pm 28.7 29.4 22.9 71 4.0 E 24 30 13 16 1009.3 - 0.0
23/05:00pm 28.9 28.8 22.9 70 4.1 E 28 35 15 19 1009.3 - 0.0

Other Formats:

Comma delimited format used in spreadsheet applications
http://www.bom.gov.au/fwo/IDQ60801/IDQ60801.94174.axf

JavaScript Object Notation format (JSON) in row-major order
http://www.bom.gov.au/fwo/IDQ60801/IDQ60801.94174.json